Time;durP1;ratioP1;P1;durP2;ratioP2;P2;SDS_P1;SDS_P2;PMS_P1;PMS_P2;Temp;Humidity;BMP_temperature;BMP_pressure;BME280_temperature;BME280_humidity;BME280_pressure;Samples;Min_cycle;Max_cycle;Signal;HPM_P1;HPM_P2
2023/02/06 05:02:38;;;;;;;2.63;1.20;;;0.50;99.90;;;;;;4962168;23;21030;-70
2023/02/06 05:05:06;;;;;;;2.05;2.05;;;0.50;99.90;;;;;;4952247;29;20217;-69
2023/02/06 05:07:33;;;;;;;0.85;0.85;;;0.60;99.90;;;;;;4950504;29;20235;-69
2023/02/06 05:10:00;;;;;;;1.85;1.77;;;0.50;99.90;;;;;;4952921;29;20521;-70
2023/02/06 05:12:27;;;;;;;0.55;0.55;;;0.50;99.90;;;;;;4952399;28;20239;-70
2023/02/06 05:14:54;;;;;;;1.80;1.70;;;0.50;99.90;;;;;;4948615;29;20216;-69
2023/02/06 05:17:21;;;;;;;3.35;1.27;;;0.50;99.90;;;;;;4954834;23;20252;-70
2023/02/06 05:19:49;;;;;;;4.63;2.65;;;0.50;99.90;;;;;;4926831;29;20232;-71
2023/02/06 05:22:16;;;;;;;5.68;2.53;;;0.50;99.90;;;;;;4926180;29;20590;-71
2023/02/06 05:24:43;;;;;;;0.95;0.95;;;0.50;99.90;;;;;;4925880;29;20217;-71
2023/02/06 05:27:09;;;;;;;3.45;3.35;;;0.60;99.90;;;;;;4921898;29;20678;-69
2023/02/06 05:29:36;;;;;;;2.28;1.60;;;0.60;99.90;;;;;;4902723;29;20558;-69
2023/02/06 05:32:03;;;;;;;1.00;0.90;;;0.60;99.90;;;;;;4907614;29;20215;-70
2023/02/06 05:34:30;;;;;;;1.52;1.50;;;0.60;99.90;;;;;;4901860;29;20206;-69
2023/02/06 05:36:58;;;;;;;7.38;3.25;;;0.60;99.90;;;;;;4905914;29;20572;-70
2023/02/06 05:39:25;;;;;;;0.50;0.50;;;0.60;99.90;;;;;;4910706;29;20214;-70
2023/02/06 05:41:52;;;;;;;0.85;0.85;;;0.60;99.90;;;;;;4903676;29;20214;-71
2023/02/06 05:44:19;;;;;;;2.63;2.00;;;0.60;99.90;;;;;;4905520;29;20237;-71
2023/02/06 05:46:47;;;;;;;3.85;2.28;;;0.60;99.90;;;;;;4910578;29;20249;-69
2023/02/06 05:49:14;;;;;;;1.50;1.50;;;0.60;99.90;;;;;;4907686;29;20271;-72
2023/02/06 05:51:40;;;;;;;1.48;1.48;;;0.50;99.90;;;;;;4906997;29;20213;-71
2023/02/06 05:54:09;;;;;;;1.73;0.73;;;0.60;99.90;;;;;;4900424;29;20580;-71
2023/02/06 05:56:35;;;;;;;1.13;1.00;;;0.50;99.90;;;;;;4893961;29;20206;-72
2023/02/06 05:59:02;;;;;;;0.82;0.82;;;0.50;99.90;;;;;;4901405;29;20252;-71
2023/02/06 06:01:29;;;;;;;0.50;0.50;;;0.50;99.90;;;;;;4901801;29;20279;-71
2023/02/06 06:03:55;;;;;;;0.93;0.93;;;0.50;99.90;;;;;;4905897;29;20218;-71
2023/02/06 06:06:22;;;;;;;1.40;1.40;;;0.50;99.90;;;;;;4901684;29;20624;-71
2023/02/06 06:08:49;;;;;;;1.70;1.70;;;0.50;99.90;;;;;;4909622;29;20244;-70
2023/02/06 06:11:17;;;;;;;1.60;1.60;;;0.40;99.90;;;;;;4905804;29;20220;-71
2023/02/06 06:13:44;;;;;;;2.60;1.20;;;0.40;99.90;;;;;;4910902;29;20323;-71
2023/02/06 06:16:11;;;;;;;2.00;1.65;;;0.40;99.90;;;;;;4907596;29;20218;-71
2023/02/06 06:18:38;;;;;;;2.03;1.92;;;0.40;99.90;;;;;;4915480;29;20237;-71
2023/02/06 06:21:05;;;;;;;0.40;0.40;;;0.30;99.90;;;;;;4913665;29;20221;-71
2023/02/06 06:23:31;;;;;;;1.05;0.70;;;0.30;99.90;;;;;;4920048;29;20716;-71
2023/02/06 06:25:58;;;;;;;1.25;1.20;;;0.30;99.90;;;;;;4910287;29;20235;-71
2023/02/06 06:28:26;;;;;;;1.10;1.10;;;0.30;99.90;;;;;;4917291;29;20650;-69
2023/02/06 06:31:00;;;;;;;1.10;1.10;;;0.30;99.90;;;;;;4908049;29;20206;-70
2023/02/06 06:33:27;;;;;;;1.75;1.65;;;0.30;99.90;;;;;;4906681;29;20222;-70
2023/02/06 06:35:54;;;;;;;1.02;1.02;;;0.20;99.90;;;;;;4917342;29;20217;-70
2023/02/06 06:38:20;;;;;;;1.20;1.10;;;0.20;99.90;;;;;;4910327;29;20255;-71
2023/02/06 06:40:47;;;;;;;1.33;1.05;;;0.20;99.90;;;;;;4917687;29;20225;-70
2023/02/06 06:43:14;;;;;;;0.65;0.65;;;0.20;99.90;;;;;;4917614;29;20237;-71
2023/02/06 06:45:42;;;;;;;1.20;1.13;;;0.10;99.90;;;;;;4916305;29;20217;-71
2023/02/06 06:48:08;;;;;;;5.18;1.70;;;0.20;99.90;;;;;;4915783;29;20274;-70
2023/02/06 06:50:35;;;;;;;1.90;1.75;;;0.10;99.90;;;;;;4910583;29;20625;-71
2023/02/06 06:53:03;;;;;;;1.70;1.60;;;0.10;99.90;;;;;;4902779;29;20217;-69
2023/02/06 06:55:29;;;;;;;1.60;1.60;;;0.10;99.90;;;;;;4893183;29;20211;-67
2023/02/06 06:57:56;;;;;;;0.93;0.93;;;0.10;99.90;;;;;;4905408;29;20245;-70
2023/02/06 07:00:23;;;;;;;0.73;0.73;;;0.10;99.90;;;;;;4911214;29;20253;-69
2023/02/06 07:02:51;;;;;;;1.77;1.05;;;0.10;99.90;;;;;;4907892;29;20220;-70
2023/02/06 07:05:18;;;;;;;0.95;0.95;;;0.10;99.90;;;;;;4902169;29;20217;-70
2023/02/06 07:07:45;;;;;;;1.95;1.85;;;0.00;99.90;;;;;;4902563;29;20241;-71
2023/02/06 07:10:12;;;;;;;1.23;1.23;;;0.00;99.90;;;;;;4903379;29;20302;-70
2023/02/06 07:12:39;;;;;;;0.73;0.73;;;0.10;99.90;;;;;;4912372;29;20209;-72
2023/02/06 07:15:07;;;;;;;0.98;0.98;;;0.00;99.90;;;;;;4907710;29;20217;-71
2023/02/06 07:17:34;;;;;;;1.67;1.58;;;0.00;99.90;;;;;;4909164;29;20320;-71
2023/02/06 07:20:02;;;;;;;1.17;1.17;;;0.00;99.90;;;;;;4909455;29;20217;-71
2023/02/06 07:22:29;;;;;;;3.05;2.95;;;0.10;99.90;;;;;;4906506;29;20588;-69
2023/02/06 07:24:56;;;;;;;10.40;3.92;;;0.10;99.90;;;;;;4895890;29;20612;-70
2023/02/06 07:27:22;;;;;;;0.43;0.43;;;0.20;99.90;;;;;;4907867;29;20238;-70
2023/02/06 07:29:49;;;;;;;0.75;0.75;;;0.20;99.90;;;;;;4909051;29;20221;-70
2023/02/06 07:32:16;;;;;;;12.32;4.50;;;0.20;99.90;;;;;;4902385;29;20652;-71
2023/02/06 07:34:43;;;;;;;2.17;1.23;;;0.30;99.90;;;;;;4902962;29;20671;-71
2023/02/06 07:37:11;;;;;;;3.20;3.10;;;0.40;99.90;;;;;;4903834;29;20233;-69
2023/02/06 07:39:37;;;;;;;3.65;3.20;;;0.40;99.90;;;;;;4899913;29;20234;-70
2023/02/06 07:42:04;;;;;;;1.30;1.30;;;0.50;99.90;;;;;;4896800;29;20946;-70
2023/02/06 07:44:31;;;;;;;3.05;2.95;;;0.50;99.90;;;;;;4898437;29;20587;-70
2023/02/06 07:46:58;;;;;;;0.50;0.50;;;0.60;99.90;;;;;;4895196;29;20268;-70
2023/02/06 07:49:25;;;;;;;7.63;2.72;;;0.60;99.90;;;;;;4913563;29;20207;-70
2023/02/06 07:51:52;;;;;;;1.67;1.58;;;0.70;99.90;;;;;;4905487;29;20211;-70
2023/02/06 07:54:20;;;;;;;2.13;2.03;;;0.70;99.90;;;;;;4902223;29;20229;-71
2023/02/06 07:56:46;;;;;;;1.92;1.80;;;0.70;99.90;;;;;;4894397;29;20614;-72
2023/02/06 07:59:13;;;;;;;3.92;2.92;;;0.80;99.90;;;;;;4903980;29;20227;-70
2023/02/06 08:01:40;;;;;;;0.52;0.52;;;0.80;99.90;;;;;;4905745;29;20207;-71
2023/02/06 08:04:07;;;;;;;1.90;1.80;;;0.90;99.90;;;;;;4897495;29;20677;-71
2023/02/06 08:06:33;;;;;;;2.38;1.58;;;0.90;99.90;;;;;;4907707;29;20698;-71
2023/02/06 08:09:00;;;;;;;5.10;1.33;;;1.00;99.90;;;;;;4908682;29;20202;-71
2023/02/06 08:11:29;;;;;;;2.75;0.80;;;1.10;99.90;;;;;;4896819;29;20212;-71
2023/02/06 08:13:57;;;;;;;0.82;0.82;;;1.20;99.90;;;;;;4895287;29;20234;-70
2023/02/06 08:16:24;;;;;;;2.05;1.90;;;1.30;99.90;;;;;;4909777;29;20698;-70
2023/02/06 08:18:51;;;;;;;8.13;0.85;;;1.30;99.90;;;;;;4903478;29;20239;-71
2023/02/06 08:21:20;;;;;;;11.00;3.38;;;1.40;99.90;;;;;;4901143;29;20472;-71
2023/02/06 08:23:47;;;;;;;4.03;3.70;;;1.50;99.90;;;;;;4906552;29;20294;-71
2023/02/06 08:26:15;;;;;;;1.60;1.50;;;1.60;99.90;;;;;;4912820;29;20215;-70
2023/02/06 08:28:44;;;;;;;1.40;1.40;;;1.60;99.90;;;;;;4892008;29;20231;-71
2023/02/06 08:31:13;;;;;;;7.32;2.80;;;1.60;99.90;;;;;;4904189;29;20225;-71
2023/02/06 08:33:40;;;;;;;2.22;2.22;;;1.70;99.90;;;;;;4904469;29;20657;-71
2023/02/06 08:36:08;;;;;;;1.00;1.00;;;1.80;99.90;;;;;;4902921;29;20214;-71
2023/02/06 08:38:35;;;;;;;1.90;1.50;;;1.90;99.90;;;;;;4901220;29;20234;-71
2023/02/06 08:41:03;;;;;;;6.07;1.95;;;1.90;99.90;;;;;;4896932;29;20211;-71
2023/02/06 08:43:29;;;;;;;3.80;1.27;;;2.00;99.90;;;;;;4894309;29;20206;-71
2023/02/06 08:45:58;;;;;;;1.58;1.50;;;2.10;99.90;;;;;;4904264;29;20209;-71
2023/02/06 08:48:25;;;;;;;1.10;1.10;;;2.20;99.90;;;;;;4893077;29;20394;-70
2023/02/06 08:51:02;;;;;;;2.75;2.00;;;2.20;99.90;;;;;;4888463;29;20237;-71
2023/02/06 08:53:29;;;;;;;3.00;2.78;;;2.30;99.90;;;;;;4897220;29;20226;-70
2023/02/06 08:55:58;;;;;;;14.93;0.90;;;2.30;99.90;;;;;;4902170;29;20218;-71
2023/02/06 08:58:25;;;;;;;0.68;0.68;;;2.40;99.90;;;;;;4897900;29;20233;-70
2023/02/06 09:00:52;;;;;;;1.98;1.88;;;2.60;99.90;;;;;;4908052;29;20218;-71
2023/02/06 09:03:21;;;;;;;1.35;1.25;;;3.00;99.90;;;;;;4896099;29;20223;-70
2023/02/06 09:05:48;;;;;;;3.53;1.52;;;3.30;99.90;;;;;;4898436;29;20665;-71
2023/02/06 09:08:15;;;;;;;4.80;4.43;;;3.40;99.90;;;;;;4899077;29;20231;-70
2023/02/06 09:10:42;;;;;;;19.80;2.92;;;3.40;99.90;;;;;;4897526;29;20217;-70
2023/02/06 09:13:09;;;;;;;1.58;1.58;;;3.70;99.90;;;;;;4901376;29;20219;-71
2023/02/06 09:15:36;;;;;;;3.50;2.75;;;3.90;99.90;;;;;;4890871;29;20208;-71
2023/02/06 09:18:02;;;;;;;3.13;3.03;;;4.00;99.90;;;;;;4899010;29;20271;-71
2023/02/06 09:20:30;;;;;;;2.60;2.50;;;3.90;99.90;;;;;;4903030;29;20203;-70
2023/02/06 09:22:57;;;;;;;6.13;2.53;;;3.80;99.90;;;;;;4903782;29;20219;-70
2023/02/06 09:25:24;;;;;;;1.27;1.17;;;3.60;99.90;;;;;;4895498;29;20225;-70
2023/02/06 09:27:50;;;;;;;1.77;1.25;;;3.50;99.90;;;;;;4899000;29;20272;-70
2023/02/06 09:30:17;;;;;;;1.42;1.25;;;3.50;99.90;;;;;;4896232;29;20222;-71
2023/02/06 09:32:44;;;;;;;1.63;1.63;;;3.50;99.90;;;;;;4898750;29;20212;-70
2023/02/06 09:35:11;;;;;;;2.30;2.25;;;3.50;99.90;;;;;;4916287;29;20222;-71
2023/02/06 09:37:39;;;;;;;1.90;1.90;;;3.50;99.90;;;;;;4905042;29;20238;-70
2023/02/06 09:40:08;;;;;;;1.42;1.42;;;3.50;99.90;;;;;;4897240;29;20264;-71
2023/02/06 09:42:37;;;;;;;2.70;2.13;;;3.50;99.90;;;;;;4902535;29;20263;-70
2023/02/06 09:45:08;;;;;;;0.73;0.70;;;3.50;99.90;;;;;;4895746;29;20294;-70
2023/02/06 09:47:39;;;;;;;0.70;0.70;;;3.50;99.90;;;;;;4900533;29;20731;-69
2023/02/06 09:50:11;;;;;;;1.73;1.65;;;3.60;99.90;;;;;;4904925;29;20672;-70
2023/02/06 09:53:01;;;;;;;0.90;0.60;;;3.60;99.90;;;;;;4903869;29;20219;-70
2023/02/06 09:55:33;;;;;;;0.65;0.65;;;3.60;99.90;;;;;;4908303;29;20211;-71
2023/02/06 09:58:14;;;;;;;0.63;0.63;;;3.60;99.90;;;;;;4906676;29;20231;-71
2023/02/06 10:00:48;;;;;;;0.90;0.55;;;3.70;99.90;;;;;;4907144;29;20207;-70
2023/02/06 10:03:36;;;;;;;0.80;0.80;;;3.70;99.90;;;;;;4913556;29;20684;-70
2023/02/06 10:06:14;;;;;;;0.30;0.30;;;3.80;99.90;;;;;;4898627;29;20207;-69
2023/02/06 10:08:48;;;;;;;0.98;0.98;;;3.90;99.90;;;;;;4900610;29;20828;-71
2023/02/06 10:11:25;;;;;;;1.20;1.10;;;3.90;99.90;;;;;;4905211;29;20226;-71
2023/02/06 10:13:57;;;;;;;2.47;1.70;;;3.90;99.90;;;;;;4900532;29;20210;-70
2023/02/06 10:16:38;;;;;;;5.25;0.90;;;3.90;99.90;;;;;;4901191;29;20212;-70
2023/02/06 10:19:11;;;;;;;1.00;1.00;;;4.00;99.90;;;;;;4902132;29;20235;-70
2023/02/06 10:21:42;;;;;;;5.88;1.85;;;4.00;99.90;;;;;;4917619;29;20680;-70
2023/02/06 10:24:16;;;;;;;3.13;1.30;;;4.00;99.90;;;;;;4902604;29;20214;-70
2023/02/06 10:26:42;;;;;;;2.28;2.17;;;4.00;99.90;;;;;;4905850;29;20553;-70
2023/02/06 10:29:18;;;;;;;6.30;2.47;;;4.00;99.90;;;;;;4903718;29;20219;-71
2023/02/06 10:31:58;;;;;;;1.00;1.00;;;4.00;99.90;;;;;;4896326;29;20291;-70
2023/02/06 10:34:46;;;;;;;1.00;1.00;;;4.00;99.90;;;;;;4907749;29;20217;-69
2023/02/06 10:37:24;;;;;;;2.10;1.60;;;4.10;99.90;;;;;;4901272;29;20331;-71
2023/02/06 10:40:21;;;;;;;0.70;0.70;;;4.10;99.90;;;;;;4911956;29;20231;-70
2023/02/06 10:42:56;;;;;;;5.40;2.80;;;4.00;99.90;;;;;;4894530;29;20221;-70
2023/02/06 10:45:36;;;;;;;0.52;0.52;;;4.00;99.90;;;;;;4900908;29;20211;-70
2023/02/06 10:48:10;;;;;;;2.40;2.28;;;4.00;99.90;;;;;;4888272;29;20231;-69
2023/02/06 10:50:39;;;;;;;2.35;1.52;;;3.90;99.90;;;;;;4896154;29;20206;-70
2023/02/06 10:53:15;;;;;;;1.30;1.20;;;3.90;99.90;;;;;;4893291;29;20207;-70
2023/02/06 10:55:48;;;;;;;0.50;0.50;;;3.90;99.90;;;;;;4898702;29;20242;-69
2023/02/06 10:58:18;;;;;;;2.35;2.10;;;3.90;99.90;;;;;;4900799;29;20247;-69
2023/02/06 11:00:47;;;;;;;1.33;1.27;;;3.90;99.90;;;;;;4907009;29;20210;-71
2023/02/06 11:03:16;;;;;;;2.35;0.98;;;3.90;99.90;;;;;;4898402;29;20702;-70
2023/02/06 11:05:43;;;;;;;9.90;2.10;;;4.00;99.90;;;;;;4895533;29;20215;-70
2023/02/06 11:08:16;;;;;;;25.38;2.95;;;4.00;99.90;;;;;;4904960;29;20314;-70
2023/02/06 11:10:45;;;;;;;1.45;1.45;;;4.10;99.90;;;;;;4905216;29;20215;-71
2023/02/06 11:13:15;;;;;;;5.05;1.50;;;4.10;99.90;;;;;;4905348;29;20705;-70
2023/02/06 11:15:47;;;;;;;0.80;0.80;;;4.20;99.90;;;;;;4903386;29;20210;-72
2023/02/06 11:18:18;;;;;;;5.47;1.70;;;4.30;99.90;;;;;;4898784;29;20234;-70
2023/02/06 11:20:48;;;;;;;1.90;1.77;;;4.40;99.90;;;;;;4890286;29;20665;-71
2023/02/06 11:23:18;;;;;;;3.35;3.22;;;4.40;99.90;;;;;;4896913;29;20571;-71
2023/02/06 11:25:49;;;;;;;2.05;1.85;;;4.40;99.90;;;;;;4904472;29;20220;-72
2023/02/06 11:28:20;;;;;;;2.30;2.20;;;4.50;99.90;;;;;;4908766;29;20268;-71
2023/02/06 11:30:56;;;;;;;1.08;1.08;;;4.60;99.90;;;;;;4904025;29;20219;-71
2023/02/06 11:33:28;;;;;;;0.75;0.75;;;4.60;99.90;;;;;;4897927;29;20211;-71
2023/02/06 11:35:58;;;;;;;4.22;2.10;;;4.60;99.90;;;;;;4911801;29;20222;-71
2023/02/06 11:38:28;;;;;;;1.52;1.45;;;4.50;99.90;;;;;;4890151;29;20323;-70
2023/02/06 11:41:00;;;;;;;2.17;1.70;;;4.60;99.90;;;;;;4891815;29;20208;-72
2023/02/06 11:43:29;;;;;;;1.30;1.30;;;4.60;99.90;;;;;;4898798;29;20211;-70
2023/02/06 11:46:09;;;;;;;1.55;1.20;;;4.60;99.90;;;;;;4911185;29;20208;-70
2023/02/06 11:48:39;;;;;;;7.15;2.22;;;4.70;99.90;;;;;;4903274;29;20235;-70
2023/02/06 11:51:07;;;;;;;7.50;1.92;;;4.70;99.90;;;;;;4906645;29;20211;-71
2023/02/06 11:53:34;;;;;;;2.90;2.55;;;4.80;99.90;;;;;;4894378;29;20206;-71
2023/02/06 11:56:06;;;;;;;1.17;1.17;;;4.80;99.90;;;;;;4895664;29;20736;-71
2023/02/06 11:58:33;;;;;;;7.63;1.35;;;4.80;99.90;;;;;;4897275;29;20232;-70
2023/02/06 12:01:03;;;;;;;4.75;3.38;;;4.80;99.90;;;;;;4899674;29;20583;-70
2023/02/06 12:03:34;;;;;;;2.75;2.53;;;4.80;99.90;;;;;;4902963;29;20203;-69
2023/02/06 12:06:07;;;;;;;3.22;2.95;;;4.80;99.90;;;;;;4900702;29;20263;-70
2023/02/06 12:08:41;;;;;;;1.48;1.30;;;4.80;99.90;;;;;;4894976;29;20247;-69
2023/02/06 12:11:16;;;;;;;7.15;3.00;;;4.80;99.90;;;;;;4902740;29;20211;-70
2023/02/06 12:13:47;;;;;;;2.22;1.73;;;4.80;99.90;;;;;;4905805;29;20210;-70
2023/02/06 12:16:15;;;;;;;9.70;1.67;;;4.80;99.90;;;;;;4900241;29;20216;-69
2023/02/06 12:18:45;;;;;;;7.32;2.70;;;4.90;99.90;;;;;;4901855;29;20726;-70
2023/02/06 12:21:18;;;;;;;4.78;1.38;;;4.90;99.90;;;;;;4896394;29;20234;-69
2023/02/06 12:23:49;;;;;;;3.42;2.17;;;5.00;99.90;;;;;;4899097;29;20488;-70
2023/02/06 12:26:19;;;;;;;3.55;1.70;;;5.00;99.90;;;;;;4905399;29;20204;-71
2023/02/06 12:28:54;;;;;;;6.28;1.75;;;5.10;99.90;;;;;;4908904;29;20709;-69
2023/02/06 12:31:25;;;;;;;2.40;2.25;;;5.10;99.90;;;;;;4903911;29;20214;-70
2023/02/06 12:33:54;;;;;;;10.98;2.40;;;5.20;99.90;;;;;;4902031;29;20208;-70
2023/02/06 12:36:24;;;;;;;1.88;1.80;;;5.10;99.90;;;;;;4909329;29;20234;-69
2023/02/06 12:38:55;;;;;;;12.02;2.90;;;5.20;99.90;;;;;;4902508;29;21478;-71
2023/02/06 12:41:37;;;;;;;4.25;0.93;;;5.20;99.90;;;;;;4916967;29;20215;-70
2023/02/06 12:44:19;;;;;;;2.67;2.28;;;5.20;99.90;;;;;;4908398;29;20208;-71
2023/02/06 12:46:51;;;;;;;0.85;0.85;;;5.20;99.90;;;;;;4909810;29;20215;-70
2023/02/06 12:49:22;;;;;;;1.40;1.40;;;5.20;99.90;;;;;;4904252;29;20672;-71
2023/02/06 12:51:54;;;;;;;12.40;1.80;;;5.20;99.90;;;;;;4905655;29;20210;-69
2023/02/06 12:54:25;;;;;;;1.80;1.70;;;5.30;99.90;;;;;;4903376;29;20203;-69
2023/02/06 12:56:57;;;;;;;1.60;1.60;;;5.30;99.90;;;;;;4908260;29;20234;-70
2023/02/06 12:59:51;;;;;;;5.07;1.50;;;5.20;99.90;;;;;;4906728;29;20221;-70
2023/02/06 13:02:25;;;;;;;1.42;1.33;;;5.30;99.90;;;;;;4904633;29;20212;-70
2023/02/06 13:04:53;;;;;;;1.70;1.60;;;5.30;99.90;;;;;;4893575;29;20211;-69
2023/02/06 13:07:23;;;;;;;0.95;0.90;;;5.20;99.90;;;;;;4901173;29;20232;-69
2023/02/06 13:09:52;;;;;;;3.00;2.80;;;5.20;99.90;;;;;;4911229;29;20208;-69
2023/02/06 13:12:24;;;;;;;6.72;1.50;;;5.30;99.90;;;;;;4901744;29;20203;-69
2023/02/06 13:14:56;;;;;;;2.05;1.88;;;5.20;99.90;;;;;;4903349;29;20203;-70
2023/02/06 13:17:24;;;;;;;1.65;1.65;;;5.30;99.90;;;;;;4900995;29;20239;-68
2023/02/06 13:20:02;;;;;;;1.42;1.23;;;5.30;99.90;;;;;;4909100;29;20239;-69
2023/02/06 13:22:45;;;;;;;6.30;1.02;;;5.30;99.90;;;;;;4913131;29;20206;-70
2023/02/06 13:25:52;;;;;;;2.15;1.33;;;5.30;99.90;;;;;;4907420;29;20220;-68
2023/02/06 13:28:55;;;;;;;1.23;1.00;;;5.30;99.90;;;;;;4905696;29;20301;-69
2023/02/06 13:31:28;;;;;;;2.05;2.00;;;5.30;99.90;;;;;;4904145;29;20207;-70
2023/02/06 13:34:06;;;;;;;2.20;2.10;;;5.40;99.90;;;;;;4902154;29;20216;-71
2023/02/06 13:36:49;;;;;;;1.48;1.42;;;5.40;99.90;;;;;;4906620;29;20216;-70
2023/02/06 13:39:37;;;;;;;3.53;1.40;;;5.40;99.90;;;;;;4907353;29;20211;-69
2023/02/06 13:42:40;;;;;;;1.13;1.13;;;5.40;99.90;;;;;;4900339;29;20208;-69
2023/02/06 13:45:19;;;;;;;1.27;1.17;;;5.40;99.90;;;;;;4899341;29;20211;-69
2023/02/06 13:48:16;;;;;;;2.83;2.65;;;5.30;99.90;;;;;;4910630;29;20239;-69
2023/02/06 13:50:57;;;;;;;10.05;2.97;;;5.30;99.90;;;;;;4896215;29;20208;-69
2023/02/06 13:53:35;;;;;;;8.02;2.67;;;5.30;99.90;;;;;;4907579;29;20222;-69
2023/02/06 13:56:15;;;;;;;1.75;1.73;;;5.30;99.90;;;;;;4899726;29;20304;-70
2023/02/06 13:58:47;;;;;;;2.47;1.10;;;5.20;99.90;;;;;;4906460;29;20233;-70
2023/02/06 14:01:19;;;;;;;1.55;1.55;;;5.30;99.90;;;;;;4901333;29;20580;-68
2023/02/06 14:03:48;;;;;;;1.90;1.60;;;5.30;99.90;;;;;;4918550;29;20334;-70
2023/02/06 14:06:29;;;;;;;2.38;2.28;;;5.30;99.90;;;;;;4912626;29;20215;-71
2023/02/06 14:09:07;;;;;;;2.40;1.95;;;5.30;99.90;;;;;;4905624;29;20227;-71
2023/02/06 14:14:47;;;;;;;1.67;0.95;;;5.50;99.90;;;;;;4893394;29;20252;-69
2023/02/06 14:17:25;;;;;;;1.98;1.88;;;5.50;99.90;;;;;;4909704;29;20248;-70
2023/02/06 14:19:58;;;;;;;0.80;0.80;;;5.50;99.90;;;;;;4899076;29;20689;-70
2023/02/06 14:22:33;;;;;;;2.58;2.25;;;5.50;99.90;;;;;;4903834;29;20224;-70
2023/02/06 14:25:18;;;;;;;1.75;1.55;;;5.50;99.90;;;;;;4911730;29;20204;-69
2023/02/06 14:27:59;;;;;;;0.75;0.75;;;5.40;99.90;;;;;;4909663;29;20245;-70
2023/02/06 14:30:32;;;;;;;1.10;1.10;;;5.40;99.90;;;;;;4910577;29;20195;-69
2023/02/06 14:33:15;;;;;;;1.35;0.75;;;5.40;99.90;;;;;;4917718;29;20223;-69
2023/02/06 14:36:02;;;;;;;0.88;0.88;;;5.40;99.90;;;;;;4908254;29;20209;-69
2023/02/06 14:39:01;;;;;;;2.00;1.27;;;5.30;99.90;;;;;;4904296;29;20227;-69
2023/02/06 14:41:29;;;;;;;1.17;1.17;;;5.30;99.90;;;;;;4855658;29;20268;-69
2023/02/06 14:43:56;;;;;;;1.30;1.20;;;5.20;99.90;;;;;;4913127;29;20204;-69
2023/02/06 14:46:23;;;;;;;1.33;1.33;;;5.20;99.90;;;;;;4899879;29;20208;-70
2023/02/06 14:48:55;;;;;;;1.42;0.88;;;5.20;99.90;;;;;;4916154;29;20589;-70
2023/02/06 14:51:27;;;;;;;1.05;0.65;;;5.10;99.90;;;;;;4900978;29;20208;-70
2023/02/06 14:53:56;;;;;;;6.35;1.10;;;5.10;99.90;;;;;;4898739;29;20211;-70
2023/02/06 14:56:28;;;;;;;0.45;0.45;;;5.10;99.90;;;;;;4908575;29;20666;-69
2023/02/06 14:58:55;;;;;;;0.65;0.65;;;5.10;99.90;;;;;;4898165;29;20219;-70
2023/02/06 15:01:26;;;;;;;0.75;0.75;;;5.00;99.90;;;;;;4898200;29;20227;-69
2023/02/06 15:04:08;;;;;;;3.80;1.42;;;5.00;99.90;;;;;;4900220;29;20588;-69
2023/02/06 15:06:37;;;;;;;2.17;2.03;;;5.00;99.90;;;;;;4896929;29;20203;-69
2023/02/06 15:09:05;;;;;;;0.70;0.70;;;4.90;99.90;;;;;;4900916;29;20213;-68
2023/02/06 15:11:32;;;;;;;0.70;0.70;;;4.90;99.90;;;;;;4897723;29;20204;-69
2023/02/06 15:14:01;;;;;;;0.80;0.80;;;4.80;99.90;;;;;;4901768;29;20223;-70
2023/02/06 15:16:29;;;;;;;2.13;1.33;;;4.80;99.90;;;;;;4905945;29;20214;-71
2023/02/06 15:19:11;;;;;;;2.70;1.50;;;4.80;99.90;;;;;;4911979;29;20204;-70
2023/02/06 15:21:41;;;;;;;14.68;3.15;;;4.70;99.90;;;;;;4894654;29;20833;-69
2023/02/06 15:24:25;;;;;;;1.08;0.80;;;4.60;99.90;;;;;;4909467;29;20216;-69
2023/02/06 15:26:59;;;;;;;1.27;1.27;;;4.60;99.90;;;;;;4897919;29;20235;-69
2023/02/06 15:29:27;;;;;;;0.75;0.75;;;4.50;99.90;;;;;;4896986;29;20324;-69
2023/02/06 15:31:57;;;;;;;0.50;0.50;;;4.50;99.90;;;;;;4892334;29;20283;-69
2023/02/06 15:34:26;;;;;;;0.65;0.65;;;4.40;99.90;;;;;;4908915;29;20216;-70
2023/02/06 15:36:53;;;;;;;1.40;1.30;;;4.40;99.90;;;;;;4897984;29;20323;-70
2023/02/06 15:39:20;;;;;;;0.73;0.73;;;4.40;99.90;;;;;;4899030;29;20209;-70
2023/02/06 15:41:49;;;;;;;1.35;1.25;;;4.30;99.90;;;;;;4891844;29;20232;-69
2023/02/06 15:44:24;;;;;;;3.22;2.45;;;4.30;99.90;;;;;;4899112;29;20212;-69
2023/02/06 15:46:51;;;;;;;1.67;1.58;;;4.30;99.90;;;;;;4896875;29;20688;-70
2023/02/06 15:49:19;;;;;;;1.25;1.25;;;4.20;99.90;;;;;;4902720;29;20218;-70
2023/02/06 15:51:53;;;;;;;3.22;2.97;;;4.20;99.90;;;;;;4898647;29;20604;-71
2023/02/06 15:54:23;;;;;;;1.20;1.15;;;4.10;99.90;;;;;;4901701;29;20214;-71
2023/02/06 15:56:53;;;;;;;2.20;2.05;;;4.10;99.90;;;;;;4901592;29;20234;-70
2023/02/06 15:59:23;;;;;;;4.95;1.27;;;4.00;99.90;;;;;;4901934;29;20204;-69
2023/02/06 16:01:51;;;;;;;2.05;1.95;;;4.00;99.90;;;;;;4904466;29;20226;-69
2023/02/06 16:04:22;;;;;;;1.67;1.58;;;3.90;99.90;;;;;;4908066;29;20706;-69
2023/02/06 16:07:03;;;;;;;2.38;2.20;;;3.90;99.90;;;;;;4902121;29;20207;-69
2023/02/06 16:09:31;;;;;;;3.75;2.38;;;3.80;99.90;;;;;;4895087;29;20206;-69
2023/02/06 16:11:58;;;;;;;1.40;1.30;;;3.70;99.90;;;;;;4904003;29;20218;-68
2023/02/06 16:14:33;;;;;;;4.53;2.25;;;3.70;99.90;;;;;;4901264;29;20218;-68
2023/02/06 16:17:02;;;;;;;1.77;1.48;;;3.60;99.90;;;;;;4891986;29;20250;-69
2023/02/06 16:19:39;;;;;;;1.50;1.40;;;3.50;99.90;;;;;;4893422;29;20211;-69
2023/02/06 16:22:16;;;;;;;2.38;2.28;;;3.50;99.90;;;;;;4895134;29;20234;-69
2023/02/06 16:24:43;;;;;;;0.95;0.95;;;3.40;99.90;;;;;;4894708;29;20211;-69
2023/02/06 16:27:19;;;;;;;1.42;1.42;;;3.40;99.90;;;;;;4899195;29;20243;-69
2023/02/06 16:29:49;;;;;;;1.92;1.10;;;3.30;99.90;;;;;;4904653;29;20210;-69
2023/02/06 16:32:18;;;;;;;1.20;1.20;;;3.30;99.90;;;;;;4900222;29;20294;-69
2023/02/06 16:34:46;;;;;;;1.70;1.60;;;3.20;99.90;;;;;;4895624;29;20211;-69
2023/02/06 16:37:16;;;;;;;1.52;1.52;;;3.20;99.90;;;;;;4909526;29;20232;-68
2023/02/06 16:39:44;;;;;;;2.65;2.65;;;3.10;99.90;;;;;;4905605;29;20322;-68
2023/02/06 16:42:16;;;;;;;3.90;2.55;;;3.10;99.90;;;;;;4901626;29;20796;-68
2023/02/06 16:44:45;;;;;;;2.40;1.52;;;3.10;99.90;;;;;;4901753;29;20582;-69
2023/02/06 16:47:14;;;;;;;1.55;1.13;;;3.10;99.90;;;;;;4906740;29;20227;-69
2023/02/06 16:49:42;;;;;;;3.50;2.17;;;3.00;99.90;;;;;;4893445;29;20223;-69
2023/02/06 16:52:16;;;;;;;2.05;2.03;;;2.90;99.90;;;;;;4895382;29;20294;-69
2023/02/06 16:54:44;;;;;;;4.68;1.25;;;2.90;99.90;;;;;;4900410;29;20211;-69
2023/02/06 16:57:18;;;;;;;4.45;2.15;;;2.90;99.90;;;;;;4891709;29;20584;-69
2023/02/06 16:59:45;;;;;;;1.27;1.20;;;2.80;99.90;;;;;;4895909;29;20199;-68
2023/02/06 17:02:13;;;;;;;2.85;2.58;;;2.80;99.90;;;;;;4898273;29;20235;-68
2023/02/06 17:04:40;;;;;;;2.58;2.03;;;2.70;99.90;;;;;;4905653;29;20214;-68
2023/02/06 17:07:14;;;;;;;2.20;1.85;;;2.70;99.90;;;;;;4907557;29;20227;-68
2023/02/06 17:09:41;;;;;;;2.90;2.67;;;2.70;99.90;;;;;;4899024;29;20234;-68
2023/02/06 17:12:12;;;;;;;2.45;2.25;;;2.70;99.90;;;;;;4895306;29;20660;-68
2023/02/06 17:14:39;;;;;;;1.88;1.75;;;2.60;99.90;;;;;;4895475;29;20210;-68
2023/02/06 17:17:05;;;;;;;2.15;2.15;;;2.60;99.90;;;;;;4896801;29;20298;-69
2023/02/06 17:19:32;;;;;;;1.85;1.75;;;2.60;99.90;;;;;;4892626;29;20645;-68
2023/02/06 17:21:59;;;;;;;2.17;1.38;;;2.50;99.90;;;;;;4907175;29;20231;-69
2023/02/06 17:24:27;;;;;;;1.25;1.25;;;2.50;99.90;;;;;;4897335;29;20226;-68
2023/02/06 17:26:53;;;;;;;2.55;2.35;;;2.50;99.90;;;;;;4892363;29;20307;-68
2023/02/06 17:29:20;;;;;;;1.50;1.50;;;2.40;99.90;;;;;;4902141;29;20700;-68
2023/02/06 17:31:47;;;;;;;3.55;3.38;;;2.40;99.90;;;;;;4903135;29;20214;-68
2023/02/06 17:34:14;;;;;;;2.42;2.33;;;2.30;99.90;;;;;;4898730;29;20208;-68
2023/02/06 17:36:41;;;;;;;2.38;2.28;;;2.30;99.90;;;;;;4895680;29;20215;-68
2023/02/06 17:39:11;;;;;;;1.60;1.50;;;2.20;99.90;;;;;;4890078;29;20242;-68
2023/02/06 17:41:39;;;;;;;4.35;4.05;;;2.20;99.90;;;;;;4886683;29;20232;-69
2023/02/06 17:44:06;;;;;;;3.85;2.00;;;2.20;99.90;;;;;;4898880;29;20263;-66
2023/02/06 17:46:33;;;;;;;1.77;1.08;;;2.10;99.90;;;;;;4901210;29;20203;-68
2023/02/06 17:48:59;;;;;;;2.35;2.25;;;2.10;99.90;;;;;;4899072;29;20665;-67
2023/02/06 17:51:26;;;;;;;1.95;1.70;;;2.20;99.90;;;;;;4898009;29;20216;-68
2023/02/06 17:53:53;;;;;;;2.05;0.98;;;2.10;99.90;;;;;;4893794;29;20241;-70
2023/02/06 17:56:20;;;;;;;3.40;1.75;;;2.10;99.90;;;;;;4907252;29;20226;-68
2023/02/06 17:58:48;;;;;;;2.40;1.65;;;2.10;99.90;;;;;;4903787;29;20237;-68
2023/02/06 18:01:17;;;;;;;2.40;2.20;;;2.10;99.90;;;;;;4901023;29;20235;-67
2023/02/06 18:03:43;;;;;;;2.47;2.35;;;2.00;99.90;;;;;;4896571;29;20215;-70
2023/02/06 18:06:11;;;;;;;2.90;1.92;;;2.00;99.90;;;;;;4893031;29;20204;-67
2023/02/06 18:08:39;;;;;;;3.17;3.08;;;1.90;99.90;;;;;;4903819;29;20235;-68
2023/02/06 18:11:10;;;;;;;5.40;3.45;;;1.90;99.90;;;;;;4904281;29;20207;-66
2023/02/06 18:13:37;;;;;;;7.25;3.53;;;1.80;99.90;;;;;;4902917;29;20341;-69
2023/02/06 18:16:06;;;;;;;6.22;4.88;;;1.80;99.90;;;;;;4908274;29;20284;-68
2023/02/06 18:18:33;;;;;;;11.77;7.93;;;1.70;99.90;;;;;;4898402;29;20740;-67
2023/02/06 18:21:00;;;;;;;4.28;3.08;;;1.70;99.90;;;;;;4910603;29;20318;-68